Terminal Aerodrome Forecast
Issued by NWS

Home | Current Version | Previous Version | Text Only | Print | Product List | Glossary Off
Versions: 1 2 3 4 5 6 7 8 9 10 11 12 13 14

000
FTUS43 KMPX 260920 AAA
TAFRNH
TAF AMD
KRNH 260920Z 2609/2706 28003KT P6SM SKC
      TEMPO 2609/2612 2SM BR
     FM261800 19004KT P6SM BKN200=

USA.gov is the U.S. government's official web portal to all federal, state and local government web resources and services.